sensor_id;sensor_type;location;lat;lon;timestamp;P1;durP1;ratioP1;P2;durP2;ratioP2
1090;SDS011;534;48.704;9.122;2022-08-25T03:00:47;0.80;;;0.80;;
1090;SDS011;534;48.704;9.122;2022-08-25T03:03:14;0.70;;;0.70;;
1090;SDS011;534;48.704;9.122;2022-08-25T03:05:41;0.70;;;0.60;;
1090;SDS011;534;48.704;9.122;2022-08-25T03:08:08;0.77;;;0.70;;
1090;SDS011;534;48.704;9.122;2022-08-25T03:10:35;0.80;;;0.80;;
1090;SDS011;534;48.704;9.122;2022-08-25T03:13:03;0.73;;;0.67;;
1090;SDS011;534;48.704;9.122;2022-08-25T03:15:30;0.70;;;0.70;;
1090;SDS011;534;48.704;9.122;2022-08-25T03:17:58;0.70;;;0.60;;
1090;SDS011;534;48.704;9.122;2022-08-25T03:20:27;0.70;;;0.70;;
1090;SDS011;534;48.704;9.122;2022-08-25T03:22:53;0.73;;;0.70;;
1090;SDS011;534;48.704;9.122;2022-08-25T03:25:20;0.90;;;0.73;;
1090;SDS011;534;48.704;9.122;2022-08-25T03:28:05;0.77;;;0.67;;
1090;SDS011;534;48.704;9.122;2022-08-25T03:30:32;0.70;;;0.70;;
1090;SDS011;534;48.704;9.122;2022-08-25T03:33:01;0.90;;;0.70;;
1090;SDS011;534;48.704;9.122;2022-08-25T03:35:28;0.70;;;0.70;;
1090;SDS011;534;48.704;9.122;2022-08-25T03:37:55;1.20;;;0.70;;
1090;SDS011;534;48.704;9.122;2022-08-25T03:40:22;0.70;;;0.70;;
1090;SDS011;534;48.704;9.122;2022-08-25T03:42:49;0.70;;;0.60;;
1090;SDS011;534;48.704;9.122;2022-08-25T03:45:16;0.70;;;0.70;;
1090;SDS011;534;48.704;9.122;2022-08-25T03:47:44;1.10;;;1.00;;
1090;SDS011;534;48.704;9.122;2022-08-25T03:50:13;0.70;;;0.70;;
1090;SDS011;534;48.704;9.122;2022-08-25T03:52:41;0.70;;;0.67;;
1090;SDS011;534;48.704;9.122;2022-08-25T03:55:09;0.80;;;0.80;;
1090;SDS011;534;48.704;9.122;2022-08-25T03:57:38;0.80;;;0.60;;
1090;SDS011;534;48.704;9.122;2022-08-25T04:00:06;0.70;;;0.70;;
1090;SDS011;534;48.704;9.122;2022-08-25T04:02:35;0.70;;;0.60;;
1090;SDS011;534;48.704;9.122;2022-08-25T04:05:03;0.70;;;0.67;;
1090;SDS011;534;48.704;9.122;2022-08-25T04:07:31;0.90;;;0.77;;
1090;SDS011;534;48.704;9.122;2022-08-25T04:09:58;0.70;;;0.60;;
1090;SDS011;534;48.704;9.122;2022-08-25T04:12:25;0.80;;;0.80;;
1090;SDS011;534;48.704;9.122;2022-08-25T04:14:52;0.90;;;0.80;;
1090;SDS011;534;48.704;9.122;2022-08-25T04:17:18;0.80;;;0.80;;
1090;SDS011;534;48.704;9.122;2022-08-25T04:19:46;0.70;;;0.70;;
1090;SDS011;534;48.704;9.122;2022-08-25T04:22:13;0.70;;;0.60;;
1090;SDS011;534;48.704;9.122;2022-08-25T04:24:41;0.70;;;0.70;;
1090;SDS011;534;48.704;9.122;2022-08-25T04:27:08;0.80;;;0.80;;
1090;SDS011;534;48.704;9.122;2022-08-25T04:29:34;0.70;;;0.70;;
1090;SDS011;534;48.704;9.122;2022-08-25T04:32:01;0.80;;;0.80;;
1090;SDS011;534;48.704;9.122;2022-08-25T04:34:28;1.00;;;0.90;;
1090;SDS011;534;48.704;9.122;2022-08-25T04:36:55;0.80;;;0.80;;
1090;SDS011;534;48.704;9.122;2022-08-25T04:39:22;0.80;;;0.80;;
1090;SDS011;534;48.704;9.122;2022-08-25T04:41:50;0.80;;;0.70;;
1090;SDS011;534;48.704;9.122;2022-08-25T04:44:17;1.10;;;0.70;;
1090;SDS011;534;48.704;9.122;2022-08-25T04:46:44;0.80;;;0.70;;
1090;SDS011;534;48.704;9.122;2022-08-25T04:49:10;0.80;;;0.80;;
1090;SDS011;534;48.704;9.122;2022-08-25T04:51:39;0.80;;;0.80;;
1090;SDS011;534;48.704;9.122;2022-08-25T04:54:07;0.80;;;0.80;;
1090;SDS011;534;48.704;9.122;2022-08-25T04:56:36;1.17;;;1.07;;
1090;SDS011;534;48.704;9.122;2022-08-25T04:59:07;0.70;;;0.70;;
1090;SDS011;534;48.704;9.122;2022-08-25T05:01:35;0.70;;;0.70;;
1090;SDS011;534;48.704;9.122;2022-08-25T05:04:03;0.80;;;0.60;;
1090;SDS011;534;48.704;9.122;2022-08-25T05:06:31;1.10;;;1.00;;
1090;SDS011;534;48.704;9.122;2022-08-25T05:08:59;0.90;;;0.73;;
1090;SDS011;534;48.704;9.122;2022-08-25T05:11:27;0.80;;;0.80;;
1090;SDS011;534;48.704;9.122;2022-08-25T05:13:55;0.70;;;0.70;;
1090;SDS011;534;48.704;9.122;2022-08-25T05:16:24;0.70;;;0.70;;
1090;SDS011;534;48.704;9.122;2022-08-25T05:18:51;0.80;;;0.80;;
1090;SDS011;534;48.704;9.122;2022-08-25T05:21:19;0.90;;;0.90;;
1090;SDS011;534;48.704;9.122;2022-08-25T05:23:48;0.80;;;0.80;;
1090;SDS011;534;48.704;9.122;2022-08-25T05:26:17;0.70;;;0.70;;
1090;SDS011;534;48.704;9.122;2022-08-25T05:28:45;0.80;;;0.70;;
1090;SDS011;534;48.704;9.122;2022-08-25T05:31:13;0.90;;;0.73;;
1090;SDS011;534;48.704;9.122;2022-08-25T05:33:41;0.73;;;0.73;;
1090;SDS011;534;48.704;9.122;2022-08-25T05:36:09;0.80;;;0.80;;
1090;SDS011;534;48.704;9.122;2022-08-25T05:38:37;0.90;;;0.90;;
1090;SDS011;534;48.704;9.122;2022-08-25T05:41:05;0.80;;;0.80;;
1090;SDS011;534;48.704;9.122;2022-08-25T05:43:35;0.80;;;0.80;;
1090;SDS011;534;48.704;9.122;2022-08-25T05:46:02;0.80;;;0.80;;
1090;SDS011;534;48.704;9.122;2022-08-25T05:48:29;1.00;;;0.90;;
1090;SDS011;534;48.704;9.122;2022-08-25T05:50:57;1.47;;;1.00;;
1090;SDS011;534;48.704;9.122;2022-08-25T05:53:26;0.80;;;0.80;;
1090;SDS011;534;48.704;9.122;2022-08-25T05:55:54;0.80;;;0.70;;
1090;SDS011;534;48.704;9.122;2022-08-25T05:58:22;1.00;;;0.90;;
1090;SDS011;534;48.704;9.122;2022-08-25T06:00:50;0.93;;;0.93;;
1090;SDS011;534;48.704;9.122;2022-08-25T06:03:17;0.80;;;0.80;;
1090;SDS011;534;48.704;9.122;2022-08-25T06:05:43;0.80;;;0.80;;
1090;SDS011;534;48.704;9.122;2022-08-25T06:08:11;0.90;;;0.90;;
1090;SDS011;534;48.704;9.122;2022-08-25T06:10:39;0.97;;;0.97;;
1090;SDS011;534;48.704;9.122;2022-08-25T06:13:07;0.90;;;0.90;;
1090;SDS011;534;48.704;9.122;2022-08-25T06:15:33;0.97;;;0.87;;
1090;SDS011;534;48.704;9.122;2022-08-25T06:18:00;0.80;;;0.80;;
1090;SDS011;534;48.704;9.122;2022-08-25T06:20:27;0.80;;;0.80;;
1090;SDS011;534;48.704;9.122;2022-08-25T06:22:56;0.80;;;0.80;;
1090;SDS011;534;48.704;9.122;2022-08-25T06:25:24;0.93;;;0.90;;
1090;SDS011;534;48.704;9.122;2022-08-25T06:27:52;1.10;;;1.00;;
1090;SDS011;534;48.704;9.122;2022-08-25T06:30:20;0.80;;;0.80;;
1090;SDS011;534;48.704;9.122;2022-08-25T06:32:48;0.90;;;0.90;;
1090;SDS011;534;48.704;9.122;2022-08-25T06:35:16;0.93;;;0.93;;
1090;SDS011;534;48.704;9.122;2022-08-25T06:37:44;1.00;;;1.00;;
1090;SDS011;534;48.704;9.122;2022-08-25T06:40:13;1.00;;;1.00;;
1090;SDS011;534;48.704;9.122;2022-08-25T06:42:45;0.90;;;0.90;;
1090;SDS011;534;48.704;9.122;2022-08-25T06:45:13;0.87;;;0.87;;
1090;SDS011;534;48.704;9.122;2022-08-25T06:47:40;0.93;;;0.80;;
1090;SDS011;534;48.704;9.122;2022-08-25T06:50:07;1.00;;;1.00;;
1090;SDS011;534;48.704;9.122;2022-08-25T06:52:34;0.83;;;0.80;;
1090;SDS011;534;48.704;9.122;2022-08-25T06:55:01;1.30;;;1.20;;
1090;SDS011;534;48.704;9.122;2022-08-25T06:57:28;0.90;;;0.90;;
1090;SDS011;534;48.704;9.122;2022-08-25T06:59:59;0.80;;;0.80;;
1090;SDS011;534;48.704;9.122;2022-08-25T07:02:26;1.07;;;1.03;;
1090;SDS011;534;48.704;9.122;2022-08-25T07:04:52;0.90;;;0.90;;
1090;SDS011;534;48.704;9.122;2022-08-25T07:07:19;1.67;;;0.90;;
1090;SDS011;534;48.704;9.122;2022-08-25T07:09:46;0.90;;;0.90;;
1090;SDS011;534;48.704;9.122;2022-08-25T07:12:13;0.80;;;0.80;;
1090;SDS011;534;48.704;9.122;2022-08-25T07:14:40;0.77;;;0.70;;
1090;SDS011;534;48.704;9.122;2022-08-25T07:17:09;1.00;;;0.90;;
1090;SDS011;534;48.704;9.122;2022-08-25T07:19:35;0.90;;;0.90;;
1090;SDS011;534;48.704;9.122;2022-08-25T07:22:02;0.80;;;0.80;;
1090;SDS011;534;48.704;9.122;2022-08-25T07:24:29;1.10;;;1.00;;
1090;SDS011;534;48.704;9.122;2022-08-25T07:26:56;0.80;;;0.80;;
1090;SDS011;534;48.704;9.122;2022-08-25T07:29:24;0.80;;;0.80;;
1090;SDS011;534;48.704;9.122;2022-08-25T07:31:52;1.20;;;1.10;;
1090;SDS011;534;48.704;9.122;2022-08-25T07:34:20;1.40;;;1.10;;
1090;SDS011;534;48.704;9.122;2022-08-25T07:37:05;0.90;;;0.90;;
1090;SDS011;534;48.704;9.122;2022-08-25T07:39:32;0.90;;;0.90;;
1090;SDS011;534;48.704;9.122;2022-08-25T07:42:00;1.03;;;1.03;;
1090;SDS011;534;48.704;9.122;2022-08-25T07:44:27;0.90;;;0.90;;
1090;SDS011;534;48.704;9.122;2022-08-25T07:46:54;0.80;;;0.80;;
1090;SDS011;534;48.704;9.122;2022-08-25T07:49:23;0.80;;;0.80;;
1090;SDS011;534;48.704;9.122;2022-08-25T07:51:51;0.90;;;0.90;;
1090;SDS011;534;48.704;9.122;2022-08-25T07:54:18;0.80;;;0.80;;
1090;SDS011;534;48.704;9.122;2022-08-25T07:56:45;0.97;;;0.90;;
1090;SDS011;534;48.704;9.122;2022-08-25T07:59:12;1.00;;;1.00;;
1090;SDS011;534;48.704;9.122;2022-08-25T08:01:39;0.80;;;0.80;;
1090;SDS011;534;48.704;9.122;2022-08-25T08:04:06;0.80;;;0.80;;
1090;SDS011;534;48.704;9.122;2022-08-25T08:06:34;1.00;;;1.00;;
1090;SDS011;534;48.704;9.122;2022-08-25T08:09:01;0.90;;;0.90;;
1090;SDS011;534;48.704;9.122;2022-08-25T08:11:29;0.90;;;0.90;;
1090;SDS011;534;48.704;9.122;2022-08-25T08:13:58;1.03;;;1.00;;
1090;SDS011;534;48.704;9.122;2022-08-25T08:16:26;1.00;;;0.83;;
1090;SDS011;534;48.704;9.122;2022-08-25T08:18:54;0.90;;;0.90;;
1090;SDS011;534;48.704;9.122;2022-08-25T08:21:23;1.00;;;0.77;;
1090;SDS011;534;48.704;9.122;2022-08-25T08:23:53;0.80;;;0.73;;
1090;SDS011;534;48.704;9.122;2022-08-25T08:26:20;0.90;;;0.90;;
1090;SDS011;534;48.704;9.122;2022-08-25T08:28:48;0.87;;;0.80;;
1090;SDS011;534;48.704;9.122;2022-08-25T08:31:17;1.00;;;0.90;;
1090;SDS011;534;48.704;9.122;2022-08-25T08:33:45;0.80;;;0.80;;
1090;SDS011;534;48.704;9.122;2022-08-25T08:36:11;0.90;;;0.90;;
1090;SDS011;534;48.704;9.122;2022-08-25T08:38:40;0.87;;;0.87;;
1090;SDS011;534;48.704;9.122;2022-08-25T08:41:20;0.90;;;0.90;;
1090;SDS011;534;48.704;9.122;2022-08-25T08:44:18;1.00;;;0.80;;
1090;SDS011;534;48.704;9.122;2022-08-25T08:46:52;0.90;;;0.80;;
1090;SDS011;534;48.704;9.122;2022-08-25T08:49:29;0.83;;;0.77;;
1090;SDS011;534;48.704;9.122;2022-08-25T08:52:04;0.80;;;0.80;;
1090;SDS011;534;48.704;9.122;2022-08-25T08:54:36;0.80;;;0.80;;
1090;SDS011;534;48.704;9.122;2022-08-25T08:57:07;0.80;;;0.80;;
1090;SDS011;534;48.704;9.122;2022-08-25T08:59:42;0.80;;;0.80;;
1090;SDS011;534;48.704;9.122;2022-08-25T09:02:15;0.80;;;0.80;;
1090;SDS011;534;48.704;9.122;2022-08-25T09:04:50;0.93;;;0.83;;
1090;SDS011;534;48.704;9.122;2022-08-25T09:07:23;0.73;;;0.73;;
1090;SDS011;534;48.704;9.122;2022-08-25T09:09:54;1.00;;;0.90;;
1090;SDS011;534;48.704;9.122;2022-08-25T09:12:25;0.80;;;0.80;;
1090;SDS011;534;48.704;9.122;2022-08-25T09:15:04;0.70;;;0.70;;
1090;SDS011;534;48.704;9.122;2022-08-25T09:20:38;0.80;;;0.80;;
1090;SDS011;534;48.704;9.122;2022-08-25T09:23:16;0.80;;;0.80;;
1090;SDS011;534;48.704;9.122;2022-08-25T09:25:53;0.80;;;0.80;;
1090;SDS011;534;48.704;9.122;2022-08-25T09:28:27;0.80;;;0.70;;
1090;SDS011;534;48.704;9.122;2022-08-25T09:30:58;0.80;;;0.70;;
1090;SDS011;534;48.704;9.122;2022-08-25T09:33:27;1.00;;;1.00;;
1090;SDS011;534;48.704;9.122;2022-08-25T09:35:56;0.80;;;0.80;;
1090;SDS011;534;48.704;9.122;2022-08-25T09:38:23;0.80;;;0.80;;
1090;SDS011;534;48.704;9.122;2022-08-25T09:40:52;1.20;;;0.80;;
1090;SDS011;534;48.704;9.122;2022-08-25T09:43:21;0.80;;;0.73;;
1090;SDS011;534;48.704;9.122;2022-08-25T09:45:56;0.70;;;0.70;;
1090;SDS011;534;48.704;9.122;2022-08-25T09:48:26;0.83;;;0.83;;
1090;SDS011;534;48.704;9.122;2022-08-25T09:50:56;0.90;;;0.90;;
1090;SDS011;534;48.704;9.122;2022-08-25T09:53:25;1.00;;;1.00;;
1090;SDS011;534;48.704;9.122;2022-08-25T09:55:55;1.00;;;0.80;;
1090;SDS011;534;48.704;9.122;2022-08-25T09:58:28;0.90;;;0.80;;
1090;SDS011;534;48.704;9.122;2022-08-25T10:01:11;1.00;;;0.90;;
1090;SDS011;534;48.704;9.122;2022-08-25T10:03:52;0.80;;;0.80;;
1090;SDS011;534;48.704;9.122;2022-08-25T10:06:24;1.00;;;0.90;;
1090;SDS011;534;48.704;9.122;2022-08-25T10:08:58;0.90;;;0.70;;
1090;SDS011;534;48.704;9.122;2022-08-25T10:11:34;0.70;;;0.70;;
1090;SDS011;534;48.704;9.122;2022-08-25T10:14:06;0.80;;;0.80;;
1090;SDS011;534;48.704;9.122;2022-08-25T10:16:44;0.70;;;0.70;;
1090;SDS011;534;48.704;9.122;2022-08-25T10:19:12;0.80;;;0.80;;
1090;SDS011;534;48.704;9.122;2022-08-25T10:22:01;0.77;;;0.77;;
1090;SDS011;534;48.704;9.122;2022-08-25T10:24:31;0.70;;;0.70;;
1090;SDS011;534;48.704;9.122;2022-08-25T10:26:59;0.70;;;0.60;;
1090;SDS011;534;48.704;9.122;2022-08-25T10:29:40;0.80;;;0.80;;
1090;SDS011;534;48.704;9.122;2022-08-25T10:32:23;0.70;;;0.70;;
1090;SDS011;534;48.704;9.122;2022-08-25T10:34:57;0.97;;;0.80;;
1090;SDS011;534;48.704;9.122;2022-08-25T10:37:30;0.90;;;0.90;;
1090;SDS011;534;48.704;9.122;2022-08-25T10:40:09;1.07;;;0.70;;
1090;SDS011;534;48.704;9.122;2022-08-25T10:42:44;0.70;;;0.60;;
1090;SDS011;534;48.704;9.122;2022-08-25T10:45:18;0.80;;;0.80;;
1090;SDS011;534;48.704;9.122;2022-08-25T10:48:09;0.70;;;0.70;;
1090;SDS011;534;48.704;9.122;2022-08-25T10:50:53;0.80;;;0.73;;
1090;SDS011;534;48.704;9.122;2022-08-25T10:53:27;0.80;;;0.70;;
1090;SDS011;534;48.704;9.122;2022-08-25T10:56:03;0.70;;;0.70;;
1090;SDS011;534;48.704;9.122;2022-08-25T10:58:42;0.70;;;0.70;;
1090;SDS011;534;48.704;9.122;2022-08-25T11:01:23;0.90;;;0.73;;
1090;SDS011;534;48.704;9.122;2022-08-25T11:04:02;0.70;;;0.70;;
1090;SDS011;534;48.704;9.122;2022-08-25T11:06:36;0.70;;;0.70;;
1090;SDS011;534;48.704;9.122;2022-08-25T11:09:07;0.70;;;0.70;;
1090;SDS011;534;48.704;9.122;2022-08-25T11:11:36;0.70;;;0.70;;
1090;SDS011;534;48.704;9.122;2022-08-25T11:14:11;0.80;;;0.80;;
1090;SDS011;534;48.704;9.122;2022-08-25T11:16:46;0.70;;;0.70;;
1090;SDS011;534;48.704;9.122;2022-08-25T11:19:21;0.70;;;0.70;;
1090;SDS011;534;48.704;9.122;2022-08-25T11:21:55;1.10;;;0.70;;
1090;SDS011;534;48.704;9.122;2022-08-25T11:24:35;0.80;;;0.80;;
1090;SDS011;534;48.704;9.122;2022-08-25T11:27:08;0.80;;;0.73;;
1090;SDS011;534;48.704;9.122;2022-08-25T11:29:40;0.80;;;0.80;;
1090;SDS011;534;48.704;9.122;2022-08-25T11:32:14;0.70;;;0.70;;
1090;SDS011;534;48.704;9.122;2022-08-25T11:34:48;0.70;;;0.70;;
1090;SDS011;534;48.704;9.122;2022-08-25T11:37:18;0.70;;;0.70;;
1090;SDS011;534;48.704;9.122;2022-08-25T11:40:11;0.70;;;0.70;;
1090;SDS011;534;48.704;9.122;2022-08-25T11:42:58;0.70;;;0.70;;
1090;SDS011;534;48.704;9.122;2022-08-25T11:45:36;0.77;;;0.77;;
1090;SDS011;534;48.704;9.122;2022-08-25T11:48:17;0.70;;;0.60;;
1090;SDS011;534;48.704;9.122;2022-08-25T11:50:55;0.70;;;0.60;;
1090;SDS011;534;48.704;9.122;2022-08-25T11:53:25;0.70;;;0.70;;
1090;SDS011;534;48.704;9.122;2022-08-25T11:55:55;0.70;;;0.70;;
1090;SDS011;534;48.704;9.122;2022-08-25T11:58:30;0.80;;;0.63;;
1090;SDS011;534;48.704;9.122;2022-08-25T12:07:17;0.80;;;0.80;;
1090;SDS011;534;48.704;9.122;2022-08-25T12:12:37;0.70;;;0.70;;
1090;SDS011;534;48.704;9.122;2022-08-25T12:15:25;0.70;;;0.70;;
1090;SDS011;534;48.704;9.122;2022-08-25T12:18:07;0.90;;;0.67;;
1090;SDS011;534;48.704;9.122;2022-08-25T12:23:36;0.80;;;0.70;;
1090;SDS011;534;48.704;9.122;2022-08-25T12:29:19;0.70;;;0.70;;
1090;SDS011;534;48.704;9.122;2022-08-25T12:32:11;0.80;;;0.70;;
1090;SDS011;534;48.704;9.122;2022-08-25T12:34:53;0.73;;;0.73;;
1090;SDS011;534;48.704;9.122;2022-08-25T12:37:51;1.00;;;0.70;;
1090;SDS011;534;48.704;9.122;2022-08-25T12:40:23;0.70;;;0.70;;
1090;SDS011;534;48.704;9.122;2022-08-25T12:42:59;0.70;;;0.70;;
1090;SDS011;534;48.704;9.122;2022-08-25T12:45:34;0.70;;;0.70;;
1090;SDS011;534;48.704;9.122;2022-08-25T12:51:09;0.70;;;0.70;;
1090;SDS011;534;48.704;9.122;2022-08-25T12:53:43;0.80;;;0.80;;
1090;SDS011;534;48.704;9.122;2022-08-25T12:56:19;0.70;;;0.67;;
1090;SDS011;534;48.704;9.122;2022-08-25T12:58:53;0.70;;;0.60;;
1090;SDS011;534;48.704;9.122;2022-08-25T13:01:29;0.80;;;0.70;;
1090;SDS011;534;48.704;9.122;2022-08-25T13:07:23;0.70;;;0.60;;
1090;SDS011;534;48.704;9.122;2022-08-25T13:10:13;0.70;;;0.60;;
1090;SDS011;534;48.704;9.122;2022-08-25T13:13:02;0.80;;;0.60;;
1090;SDS011;534;48.704;9.122;2022-08-25T13:15:33;0.70;;;0.70;;
1090;SDS011;534;48.704;9.122;2022-08-25T13:18:11;0.80;;;0.80;;
1090;SDS011;534;48.704;9.122;2022-08-25T13:20:47;0.80;;;0.60;;
1090;SDS011;534;48.704;9.122;2022-08-25T13:23:16;0.80;;;0.70;;
1090;SDS011;534;48.704;9.122;2022-08-25T13:25:48;0.90;;;0.80;;
1090;SDS011;534;48.704;9.122;2022-08-25T13:28:21;0.70;;;0.60;;
1090;SDS011;534;48.704;9.122;2022-08-25T13:30:55;0.70;;;0.63;;
1090;SDS011;534;48.704;9.122;2022-08-25T13:33:23;0.80;;;0.80;;
1090;SDS011;534;48.704;9.122;2022-08-25T13:35:51;0.70;;;0.60;;
1090;SDS011;534;48.704;9.122;2022-08-25T13:38:39;0.70;;;0.60;;
1090;SDS011;534;48.704;9.122;2022-08-25T13:41:07;0.70;;;0.70;;
1090;SDS011;534;48.704;9.122;2022-08-25T13:43:36;0.70;;;0.60;;
1090;SDS011;534;48.704;9.122;2022-08-25T13:46:04;0.70;;;0.70;;
1090;SDS011;534;48.704;9.122;2022-08-25T13:48:32;0.73;;;0.63;;
1090;SDS011;534;48.704;9.122;2022-08-25T13:51:08;1.37;;;0.60;;
1090;SDS011;534;48.704;9.122;2022-08-25T13:53:46;0.73;;;0.70;;
1090;SDS011;534;48.704;9.122;2022-08-25T13:56:21;0.80;;;0.73;;
1090;SDS011;534;48.704;9.122;2022-08-25T13:58:52;0.70;;;0.60;;
1090;SDS011;534;48.704;9.122;2022-08-25T14:01:21;1.43;;;0.60;;
1090;SDS011;534;48.704;9.122;2022-08-25T14:03:50;0.70;;;0.67;;
1090;SDS011;534;48.704;9.122;2022-08-25T14:06:19;0.97;;;0.63;;
1090;SDS011;534;48.704;9.122;2022-08-25T14:08:48;0.70;;;0.60;;
1090;SDS011;534;48.704;9.122;2022-08-25T14:11:31;0.80;;;0.60;;
1090;SDS011;534;48.704;9.122;2022-08-25T14:14:01;0.80;;;0.63;;
1090;SDS011;534;48.704;9.122;2022-08-25T14:16:31;2.00;;;0.60;;
1090;SDS011;534;48.704;9.122;2022-08-25T14:19:02;0.70;;;0.60;;
1090;SDS011;534;48.704;9.122;2022-08-25T14:21:29;0.70;;;0.60;;
1090;SDS011;534;48.704;9.122;2022-08-25T14:23:58;0.70;;;0.60;;
1090;SDS011;534;48.704;9.122;2022-08-25T14:26:25;0.70;;;0.60;;
1090;SDS011;534;48.704;9.122;2022-08-25T14:28:52;0.70;;;0.60;;
1090;SDS011;534;48.704;9.122;2022-08-25T14:31:22;0.80;;;0.70;;
1090;SDS011;534;48.704;9.122;2022-08-25T14:33:52;0.73;;;0.60;;
1090;SDS011;534;48.704;9.122;2022-08-25T14:36:21;0.70;;;0.63;;
1090;SDS011;534;48.704;9.122;2022-08-25T14:38:48;0.73;;;0.60;;
1090;SDS011;534;48.704;9.122;2022-08-25T14:41:15;0.70;;;0.60;;
1090;SDS011;534;48.704;9.122;2022-08-25T14:43:41;0.83;;;0.60;;
1090;SDS011;534;48.704;9.122;2022-08-25T14:46:11;0.70;;;0.60;;
1090;SDS011;534;48.704;9.122;2022-08-25T14:48:43;0.80;;;0.70;;
1090;SDS011;534;48.704;9.122;2022-08-25T14:51:12;0.70;;;0.60;;
1090;SDS011;534;48.704;9.122;2022-08-25T14:53:40;0.80;;;0.60;;
1090;SDS011;534;48.704;9.122;2022-08-25T14:56:08;0.70;;;0.60;;
1090;SDS011;534;48.704;9.122;2022-08-25T14:58:35;0.70;;;0.60;;
1090;SDS011;534;48.704;9.122;2022-08-25T15:01:02;0.70;;;0.60;;
1090;SDS011;534;48.704;9.122;2022-08-25T15:03:30;0.70;;;0.60;;
1090;SDS011;534;48.704;9.122;2022-08-25T15:06:00;0.70;;;0.50;;
1090;SDS011;534;48.704;9.122;2022-08-25T15:08:27;0.70;;;0.60;;
1090;SDS011;534;48.704;9.122;2022-08-25T15:11:12;1.00;;;0.63;;
1090;SDS011;534;48.704;9.122;2022-08-25T15:13:39;1.13;;;0.50;;
1090;SDS011;534;48.704;9.122;2022-08-25T15:16:06;0.70;;;0.60;;
1090;SDS011;534;48.704;9.122;2022-08-25T15:18:33;0.70;;;0.60;;
1090;SDS011;534;48.704;9.122;2022-08-25T15:21:02;0.70;;;0.60;;
1090;SDS011;534;48.704;9.122;2022-08-25T15:23:29;0.70;;;0.50;;
1090;SDS011;534;48.704;9.122;2022-08-25T15:25:56;0.80;;;0.60;;
1090;SDS011;534;48.704;9.122;2022-08-25T15:28:23;0.70;;;0.60;;
1090;SDS011;534;48.704;9.122;2022-08-25T15:30:50;0.80;;;0.60;;
1090;SDS011;534;48.704;9.122;2022-08-25T15:33:16;0.70;;;0.60;;
1090;SDS011;534;48.704;9.122;2022-08-25T15:35:43;0.80;;;0.60;;
1090;SDS011;534;48.704;9.122;2022-08-25T15:38:11;0.70;;;0.50;;
1090;SDS011;534;48.704;9.122;2022-08-25T15:40:38;0.70;;;0.50;;
1090;SDS011;534;48.704;9.122;2022-08-25T15:43:05;0.80;;;0.60;;
1090;SDS011;534;48.704;9.122;2022-08-25T15:45:32;0.70;;;0.60;;
1090;SDS011;534;48.704;9.122;2022-08-25T15:47:59;0.80;;;0.60;;
1090;SDS011;534;48.704;9.122;2022-08-25T15:50:26;0.70;;;0.60;;
1090;SDS011;534;48.704;9.122;2022-08-25T15:52:53;0.70;;;0.60;;
1090;SDS011;534;48.704;9.122;2022-08-25T15:55:21;0.70;;;0.60;;
1090;SDS011;534;48.704;9.122;2022-08-25T15:57:48;0.80;;;0.60;;
1090;SDS011;534;48.704;9.122;2022-08-25T16:00:15;0.70;;;0.70;;
1090;SDS011;534;48.704;9.122;2022-08-25T16:02:42;0.70;;;0.60;;
1090;SDS011;534;48.704;9.122;2022-08-25T16:05:09;0.70;;;0.60;;
1090;SDS011;534;48.704;9.122;2022-08-25T16:07:36;0.80;;;0.70;;
1090;SDS011;534;48.704;9.122;2022-08-25T16:10:03;0.70;;;0.57;;
1090;SDS011;534;48.704;9.122;2022-08-25T16:12:32;0.70;;;0.70;;
1090;SDS011;534;48.704;9.122;2022-08-25T16:14:58;0.70;;;0.60;;
1090;SDS011;534;48.704;9.122;2022-08-25T16:17:25;0.70;;;0.60;;
1090;SDS011;534;48.704;9.122;2022-08-25T16:19:52;0.70;;;0.60;;
1090;SDS011;534;48.704;9.122;2022-08-25T16:22:19;1.00;;;0.83;;
1090;SDS011;534;48.704;9.122;2022-08-25T16:24:45;0.70;;;0.70;;
1090;SDS011;534;48.704;9.122;2022-08-25T16:27:12;0.70;;;0.60;;
1090;SDS011;534;48.704;9.122;2022-08-25T16:29:41;0.80;;;0.70;;
1090;SDS011;534;48.704;9.122;2022-08-25T16:32:09;0.70;;;0.70;;
1090;SDS011;534;48.704;9.122;2022-08-25T16:34:38;0.70;;;0.60;;
1090;SDS011;534;48.704;9.122;2022-08-25T16:37:05;0.70;;;0.60;;
1090;SDS011;534;48.704;9.122;2022-08-25T16:39:32;0.70;;;0.60;;
1090;SDS011;534;48.704;9.122;2022-08-25T16:41:59;0.70;;;0.60;;
1090;SDS011;534;48.704;9.122;2022-08-25T16:44:26;0.80;;;0.63;;
1090;SDS011;534;48.704;9.122;2022-08-25T16:46:54;0.80;;;0.60;;
1090;SDS011;534;48.704;9.122;2022-08-25T16:49:21;0.70;;;0.70;;
1090;SDS011;534;48.704;9.122;2022-08-25T16:51:48;0.70;;;0.60;;
1090;SDS011;534;48.704;9.122;2022-08-25T16:54:15;0.70;;;0.60;;
1090;SDS011;534;48.704;9.122;2022-08-25T16:56:59;0.70;;;0.70;;
1090;SDS011;534;48.704;9.122;2022-08-25T16:59:26;0.80;;;0.60;;
1090;SDS011;534;48.704;9.122;2022-08-25T17:01:54;0.70;;;0.60;;
1090;SDS011;534;48.704;9.122;2022-08-25T17:04:21;0.70;;;0.60;;
1090;SDS011;534;48.704;9.122;2022-08-25T17:06:48;0.80;;;0.70;;
1090;SDS011;534;48.704;9.122;2022-08-25T17:09:14;0.87;;;0.60;;
1090;SDS011;534;48.704;9.122;2022-08-25T17:11:43;1.07;;;0.63;;
1090;SDS011;534;48.704;9.122;2022-08-25T17:14:13;1.83;;;0.70;;
1090;SDS011;534;48.704;9.122;2022-08-25T17:16:41;0.70;;;0.60;;
1090;SDS011;534;48.704;9.122;2022-08-25T17:19:10;1.57;;;0.90;;
1090;SDS011;534;48.704;9.122;2022-08-25T17:21:39;0.80;;;0.67;;
1090;SDS011;534;48.704;9.122;2022-08-25T17:24:09;0.70;;;0.70;;
1090;SDS011;534;48.704;9.122;2022-08-25T17:26:36;0.70;;;0.70;;
1090;SDS011;534;48.704;9.122;2022-08-25T17:29:05;0.70;;;0.67;;
1090;SDS011;534;48.704;9.122;2022-08-25T17:31:32;0.70;;;0.63;;
1090;SDS011;534;48.704;9.122;2022-08-25T17:34:03;1.23;;;0.60;;
1090;SDS011;534;48.704;9.122;2022-08-25T17:36:32;0.70;;;0.60;;
1090;SDS011;534;48.704;9.122;2022-08-25T17:38:59;0.70;;;0.60;;
1090;SDS011;534;48.704;9.122;2022-08-25T17:41:26;0.70;;;0.60;;
1090;SDS011;534;48.704;9.122;2022-08-25T17:43:52;0.70;;;0.70;;
1090;SDS011;534;48.704;9.122;2022-08-25T17:46:19;0.90;;;0.60;;
1090;SDS011;534;48.704;9.122;2022-08-25T17:48:46;0.70;;;0.50;;
1090;SDS011;534;48.704;9.122;2022-08-25T17:51:12;0.80;;;0.70;;
1090;SDS011;534;48.704;9.122;2022-08-25T17:53:40;0.70;;;0.60;;
1090;SDS011;534;48.704;9.122;2022-08-25T17:56:08;0.70;;;0.70;;
1090;SDS011;534;48.704;9.122;2022-08-25T17:58:37;0.80;;;0.60;;
1090;SDS011;534;48.704;9.122;2022-08-25T18:01:05;0.70;;;0.60;;
1090;SDS011;534;48.704;9.122;2022-08-25T18:03:32;0.77;;;0.60;;
1090;SDS011;534;48.704;9.122;2022-08-25T18:05:59;0.80;;;0.60;;
1090;SDS011;534;48.704;9.122;2022-08-25T18:08:26;0.80;;;0.60;;
1090;SDS011;534;48.704;9.122;2022-08-25T18:10:54;0.80;;;0.60;;
1090;SDS011;534;48.704;9.122;2022-08-25T18:13:21;0.80;;;0.70;;
1090;SDS011;534;48.704;9.122;2022-08-25T18:15:47;1.10;;;0.70;;
1090;SDS011;534;48.704;9.122;2022-08-25T18:18:14;0.70;;;0.60;;
1090;SDS011;534;48.704;9.122;2022-08-25T18:20:41;1.17;;;0.90;;
1090;SDS011;534;48.704;9.122;2022-08-25T18:23:10;0.90;;;0.70;;
1090;SDS011;534;48.704;9.122;2022-08-25T18:25:37;0.70;;;0.70;;
1090;SDS011;534;48.704;9.122;2022-08-25T18:28:06;0.70;;;0.70;;
1090;SDS011;534;48.704;9.122;2022-08-25T18:30:32;0.90;;;0.63;;
1090;SDS011;534;48.704;9.122;2022-08-25T18:32:59;0.80;;;0.70;;
1090;SDS011;534;48.704;9.122;2022-08-25T18:35:26;1.10;;;0.60;;
1090;SDS011;534;48.704;9.122;2022-08-25T18:37:53;0.83;;;0.70;;
1090;SDS011;534;48.704;9.122;2022-08-25T18:40:37;0.70;;;0.60;;
1090;SDS011;534;48.704;9.122;2022-08-25T18:43:05;1.20;;;0.80;;
1090;SDS011;534;48.704;9.122;2022-08-25T18:45:37;0.80;;;0.70;;
1090;SDS011;534;48.704;9.122;2022-08-25T18:48:05;0.70;;;0.60;;
1090;SDS011;534;48.704;9.122;2022-08-25T18:50:33;0.80;;;0.70;;
1090;SDS011;534;48.704;9.122;2022-08-25T18:53:02;0.70;;;0.70;;
1090;SDS011;534;48.704;9.122;2022-08-25T18:55:29;0.80;;;0.70;;
1090;SDS011;534;48.704;9.122;2022-08-25T18:57:57;0.70;;;0.70;;
1090;SDS011;534;48.704;9.122;2022-08-25T19:00:26;0.80;;;0.70;;
1090;SDS011;534;48.704;9.122;2022-08-25T19:02:55;0.90;;;0.90;;
1090;SDS011;534;48.704;9.122;2022-08-25T19:05:24;0.80;;;0.70;;
1090;SDS011;534;48.704;9.122;2022-08-25T19:07:55;0.80;;;0.70;;
1090;SDS011;534;48.704;9.122;2022-08-25T19:10:22;0.73;;;0.70;;
1090;SDS011;534;48.704;9.122;2022-08-25T19:12:49;0.70;;;0.60;;